Time;durP1;ratioP1;P1;durP2;ratioP2;P2;SDS_P1;SDS_P2;PMS_P1;PMS_P2;Temp;Humidity;BMP_temperature;BMP_pressure;BME280_temperature;BME280_humidity;BME280_pressure;Samples;Min_cycle;Max_cycle;Signal;HPM_P1;HPM_P2
2021/11/10 00:00:46;;;;;;;2.67;1.50;;;;;;;9.69;74.08;101863.34;4989486;28;20209;-66
2021/11/10 00:03:11;;;;;;;1.63;1.30;;;;;;;9.68;74.08;101858.16;4991434;28;20048;-66
2021/11/10 00:05:38;;;;;;;5.90;1.60;;;;;;;9.68;73.38;101860.78;4988367;28;20052;-70
2021/11/10 00:08:04;;;;;;;4.55;1.55;;;;;;;9.65;72.49;101853.06;4985831;28;20093;-68
2021/11/10 00:10:30;;;;;;;6.57;1.67;;;;;;;9.79;71.96;101872.34;4991832;28;20035;-66
2021/11/10 00:12:57;;;;;;;2.30;1.50;;;;;;;9.74;73.50;101876.25;4987676;28;20034;-66
2021/11/10 00:15:23;;;;;;;4.07;1.35;;;;;;;9.59;73.30;101872.84;4986702;28;20106;-70
2021/11/10 00:17:49;;;;;;;3.70;2.53;;;;;;;9.57;72.28;101872.09;4984309;28;20090;-66
2021/11/10 00:20:14;;;;;;;2.97;1.98;;;;;;;9.50;73.56;101868.19;4983076;28;20039;-66
2021/11/10 00:22:40;;;;;;;3.08;2.20;;;;;;;9.47;72.39;101884.25;4993756;28;20045;-71
2021/11/10 00:25:06;;;;;;;3.28;2.40;;;;;;;9.33;72.40;101874.56;5002938;28;20253;-66
2021/11/10 00:27:32;;;;;;;4.22;2.70;;;;;;;9.35;70.83;101877.97;4992815;28;20030;-67
2021/11/10 00:29:57;;;;;;;4.60;2.97;;;;;;;9.44;71.11;101874.72;4988810;28;20321;-67
2021/11/10 00:32:23;;;;;;;4.25;3.05;;;;;;;9.37;70.47;101865.50;4984546;28;20057;-65
2021/11/10 00:34:49;;;;;;;6.38;3.60;;;;;;;9.42;69.57;101874.00;4985604;28;20268;-70
2021/11/10 00:37:14;;;;;;;5.80;3.67;;;;;;;9.38;69.92;101872.50;4983389;28;20057;-66
2021/11/10 00:39:40;;;;;;;8.63;3.08;;;;;;;9.27;70.31;101875.81;4983140;28;20037;-65
2021/11/10 00:42:05;;;;;;;7.13;3.55;;;;;;;9.35;70.03;101880.59;4992735;28;20022;-69
2021/11/10 00:44:31;;;;;;;6.13;3.75;;;;;;;9.32;70.36;101878.16;4984926;28;20117;-69
2021/11/10 00:46:57;;;;;;;7.38;3.38;;;;;;;9.30;69.85;101872.13;4983639;28;20090;-70
2021/11/10 00:49:22;;;;;;;6.68;3.88;;;;;;;9.27;70.51;101867.91;4982990;28;20035;-69
2021/11/10 00:51:48;;;;;;;9.30;4.10;;;;;;;9.17;71.21;101868.59;4983925;28;20042;-71
2021/11/10 00:54:14;;;;;;;6.93;4.80;;;;;;;9.22;71.11;101869.16;4996194;28;20026;-69
2021/11/10 00:56:40;;;;;;;8.02;4.53;;;;;;;8.92;71.39;101866.72;4984840;28;20034;-65
2021/11/10 00:59:06;;;;;;;8.20;5.40;;;;;;;9.08;72.06;101874.50;4985265;28;20038;-69
2021/11/10 01:01:32;;;;;;;8.63;5.07;;;;;;;9.03;72.36;101866.03;4983698;28;20043;-66
2021/11/10 01:03:58;;;;;;;10.45;5.60;;;;;;;9.15;71.87;101859.94;4985619;28;20045;-69
2021/11/10 01:06:24;;;;;;;7.57;4.88;;;;;;;9.23;71.57;101865.56;4984409;28;20047;-65
2021/11/10 01:08:52;;;;;;;9.25;4.45;;;;;;;9.06;71.08;101869.31;4983572;28;20049;-65
2021/11/10 01:11:17;;;;;;;8.05;4.88;;;;;;;9.08;71.48;101874.50;4988321;28;20329;-66
2021/11/10 01:13:43;;;;;;;8.63;4.38;;;;;;;9.13;71.13;101875.03;4995786;28;20023;-69
2021/11/10 01:16:09;;;;;;;6.97;4.45;;;;;;;9.14;70.94;101874.94;4989873;28;20083;-65
2021/11/10 01:18:34;;;;;;;8.52;4.93;;;;;;;9.12;70.59;101881.28;4987707;28;20230;-66
2021/11/10 01:21:00;;;;;;;7.38;5.00;;;;;;;9.05;70.76;101872.91;4993280;28;20209;-67
2021/11/10 01:23:25;;;;;;;8.00;5.20;;;;;;;9.04;70.97;101876.50;5001786;28;20212;-69
2021/11/10 01:25:51;;;;;;;9.82;4.90;;;;;;;8.93;71.13;101879.00;4989388;28;20030;-72
2021/11/10 01:28:16;;;;;;;7.93;5.13;;;;;;;9.15;69.91;101887.22;4989140;28;20625;-72
2021/11/10 01:30:42;;;;;;;10.07;4.70;;;;;;;9.19;69.27;101887.84;4997173;28;20022;-71
2021/11/10 01:33:08;;;;;;;7.80;4.38;;;;;;;9.11;69.33;101883.06;5001596;28;20026;-72
2021/11/10 01:35:33;;;;;;;6.57;4.75;;;;;;;9.09;69.12;101882.31;4984486;28;20502;-66
2021/11/10 01:37:59;;;;;;;9.60;5.13;;;;;;;9.01;69.65;101886.41;4995028;28;20034;-67
2021/11/10 01:40:25;;;;;;;6.40;4.70;;;;;;;9.09;69.55;101892.06;4984857;28;20044;-69
2021/11/10 01:42:56;;;;;;;8.43;4.85;;;;;;;8.92;70.01;101877.28;4983879;28;20039;-70
2021/11/10 01:45:22;;;;;;;9.07;5.20;;;;;;;8.86;70.57;101894.38;4986393;28;20035;-69
2021/11/10 01:47:48;;;;;;;8.77;5.28;;;;;;;8.70;71.92;101891.03;4991338;28;20046;-69
2021/11/10 01:50:17;;;;;;;8.80;5.35;;;;;;;8.69;71.60;101891.13;4982204;28;20046;-71
2021/11/10 01:52:43;;;;;;;10.13;5.60;;;;;;;8.70;70.75;101887.53;4986493;28;20034;-66
2021/11/10 01:55:09;;;;;;;7.55;4.95;;;;;;;8.77;71.05;101889.69;4982736;28;20041;-65
2021/11/10 01:57:35;;;;;;;10.55;6.15;;;;;;;8.82;70.44;101894.69;4987188;28;20038;-70
2021/11/10 02:00:01;;;;;;;9.18;6.28;;;;;;;8.82;70.24;101890.25;4987134;28;20041;-69
2021/11/10 02:02:29;;;;;;;8.30;5.65;;;;;;;8.70;70.71;101888.38;4986529;28;20038;-70
2021/11/10 02:04:55;;;;;;;10.20;5.97;;;;;;;8.94;70.00;101892.09;4990711;28;20042;-69
2021/11/10 02:07:21;;;;;;;10.57;6.13;;;;;;;8.81;69.84;101895.63;4988232;28;20034;-71
2021/11/10 02:09:48;;;;;;;10.70;5.82;;;;;;;8.42;71.02;101881.38;4988084;28;20081;-70
2021/11/10 02:12:15;;;;;;;8.65;5.80;;;;;;;8.37;70.89;101899.28;4987974;28;20328;-65
2021/11/10 02:14:40;;;;;;;8.80;5.50;;;;;;;8.00;72.15;101883.00;5001536;28;20324;-69
2021/11/10 02:17:18;;;;;;;7.30;4.85;;;;;;;8.28;72.30;101892.72;5005109;28;20053;-70
2021/11/10 02:19:44;;;;;;;9.30;5.32;;;;;;;8.35;71.56;101895.03;4988935;28;20224;-65
2021/11/10 02:22:12;;;;;;;9.68;5.55;;;;;;;8.47;71.34;101876.66;4991016;28;20038;-65
2021/11/10 02:24:37;;;;;;;10.50;5.97;;;;;;;8.69;70.49;101886.69;4994171;28;20030;-69
2021/11/10 02:27:03;;;;;;;8.85;5.38;;;;;;;8.82;69.65;101894.69;4987551;28;20041;-65
2021/11/10 02:29:31;;;;;;;9.45;5.60;;;;;;;8.66;69.97;101888.69;4992090;28;20038;-68
2021/11/10 02:31:58;;;;;;;8.93;5.60;;;;;;;8.50;70.39;101886.16;4989307;28;20244;-71
2021/11/10 02:34:23;;;;;;;9.90;5.47;;;;;;;8.29;71.59;101888.28;4986323;28;20039;-71
2021/11/10 02:36:49;;;;;;;8.30;5.57;;;;;;;8.25;72.31;101899.97;4984010;28;20042;-67
2021/11/10 02:39:21;;;;;;;12.52;6.57;;;;;;;8.20;71.98;101900.25;4986689;28;20316;-72
2021/11/10 02:41:47;;;;;;;14.02;6.60;;;;;;;8.04;73.87;101901.28;4986101;28;20081;-67
2021/11/10 02:44:16;;;;;;;11.50;5.53;;;;;;;7.69;75.30;101893.72;4984277;28;20030;-67
2021/11/10 02:46:42;;;;;;;11.82;6.13;;;;;;;7.61;75.66;101893.31;4993676;28;20045;-69
2021/11/10 02:49:07;;;;;;;10.15;6.35;;;;;;;7.59;75.69;101903.94;4987184;28;20050;-73
2021/11/10 02:51:32;;;;;;;11.45;5.97;;;;;;;7.74;76.00;101909.25;4989689;28;20042;-71
2021/11/10 02:53:58;;;;;;;10.52;5.90;;;;;;;7.89;75.44;101914.47;4990510;28;20038;-71
2021/11/10 02:56:23;;;;;;;9.73;5.60;;;;;;;8.04;75.22;101923.25;4985387;28;20166;-66
2021/11/10 02:58:49;;;;;;;8.63;5.18;;;;;;;8.14;74.67;101927.03;4984886;28;20359;-66
2021/11/10 03:01:15;;;;;;;10.15;5.78;;;;;;;8.14;74.29;101926.19;4991091;28;20322;-71
2021/11/10 03:03:40;;;;;;;39.67;13.27;;;;;;;8.21;75.05;101920.44;4993715;28;20114;-67
2021/11/10 03:06:06;;;;;;;101.13;21.33;;;;;;;8.29;74.88;101928.72;4988935;28;20194;-71
2021/11/10 03:08:31;;;;;;;36.70;10.82;;;;;;;8.48;73.90;101935.56;4989075;28;20034;-71
2021/11/10 03:10:57;;;;;;;11.43;5.65;;;;;;;8.47;74.70;101932.09;5004101;28;20323;-67
2021/11/10 03:13:22;;;;;;;12.32;6.25;;;;;;;8.46;74.52;101932.19;5002233;28;20022;-68
2021/11/10 03:15:49;;;;;;;12.48;5.35;;;;;;;8.37;74.73;101933.59;4989606;28;20069;-71
2021/11/10 03:18:14;;;;;;;11.43;6.57;;;;;;;8.17;75.62;101926.84;4986727;28;20085;-66
2021/11/10 03:20:41;;;;;;;11.40;6.78;;;;;;;7.74;77.10;101925.94;4989154;28;20034;-73
2021/11/10 03:23:07;;;;;;;10.18;5.13;;;;;;;7.51;79.21;101926.44;4987289;28;20372;-73
2021/11/10 03:25:33;;;;;;;8.75;5.15;;;;;;;7.32;80.08;101909.03;4985482;28;20320;-69
2021/11/10 03:27:59;;;;;;;7.57;4.95;;;;;;;7.19;80.69;101915.06;4986986;28;20044;-68
2021/11/10 03:30:25;;;;;;;14.07;5.60;;;;;;;7.34;80.29;101920.34;4986443;28;20038;-73
2021/11/10 03:32:55;;;;;;;9.40;5.28;;;;;;;7.31;79.65;101920.53;4985514;28;20038;-73
2021/11/10 03:35:21;;;;;;;9.45;4.80;;;;;;;7.31;80.15;101917.88;4989301;28;20050;-74
2021/11/10 03:37:46;;;;;;;8.98;4.95;;;;;;;7.23;80.96;101920.09;4987242;28;20340;-73
2021/11/10 03:40:13;;;;;;;9.25;4.68;;;;;;;7.35;79.93;101914.13;4985135;28;20254;-69
2021/11/10 03:42:39;;;;;;;8.30;4.68;;;;;;;7.29;80.56;101905.75;4993723;28;20018;-68
2021/11/10 03:45:06;;;;;;;9.18;5.47;;;;;;;7.27;79.96;101910.22;4990420;28;20227;-68
2021/11/10 03:47:31;;;;;;;9.65;4.65;;;;;;;7.37;80.21;101924.59;4988545;28;20084;-68
2021/11/10 03:49:57;;;;;;;9.73;5.35;;;;;;;7.39;79.84;101909.53;4989795;28;20030;-72
2021/11/10 03:52:23;;;;;;;12.95;5.47;;;;;;;7.24;79.21;101907.75;4985532;28;20189;-72
2021/11/10 03:54:49;;;;;;;9.63;4.97;;;;;;;6.97;80.88;101910.19;4989951;28;20050;-70
2021/11/10 03:57:14;;;;;;;9.52;5.78;;;;;;;6.96;82.16;101916.38;4985879;28;20046;-68
2021/11/10 03:59:40;;;;;;;10.75;5.22;;;;;;;7.07;80.23;101914.00;4984934;28;20317;-68
2021/11/10 04:02:09;;;;;;;17.38;6.00;;;;;;;7.07;80.04;101905.25;4983911;28;20141;-68
2021/11/10 04:04:35;;;;;;;12.48;5.95;;;;;;;7.04;80.41;101911.53;4994904;28;20204;-72
2021/11/10 04:07:00;;;;;;;15.23;6.55;;;;;;;6.99;81.08;101901.25;4990209;28;20333;-72
2021/11/10 04:09:26;;;;;;;9.60;5.75;;;;;;;7.20;79.99;101917.63;4985750;28;20066;-67
2021/11/10 04:11:52;;;;;;;11.65;5.90;;;;;;;7.21;80.68;101915.84;4985615;28;20042;-72
2021/11/10 04:14:18;;;;;;;10.93;4.97;;;;;;;7.12;81.04;101906.66;4984505;28;20035;-67
2021/11/10 04:16:43;;;;;;;12.30;6.22;;;;;;;7.25;81.02;101920.00;4988714;28;20034;-72
2021/11/10 04:19:09;;;;;;;10.63;5.50;;;;;;;7.48;79.43;101906.38;4985739;28;20027;-72
2021/11/10 04:21:34;;;;;;;13.60;5.80;;;;;;;7.59;78.12;101913.66;4987858;28;20097;-68
2021/11/10 04:24:00;;;;;;;8.45;4.68;;;;;;;7.51;79.38;101916.75;4992978;28;20321;-72
2021/11/10 04:26:29;;;;;;;9.25;5.18;;;;;;;7.50;78.94;101920.31;4987838;28;20097;-72
2021/11/10 04:28:56;;;;;;;7.93;5.05;;;;;;;7.19;80.68;101909.81;4985731;28;20037;-72
2021/11/10 04:31:22;;;;;;;7.70;4.90;;;;;;;7.11;80.33;101909.41;4984999;28;20046;-72
2021/11/10 04:33:48;;;;;;;8.32;4.82;;;;;;;7.26;80.63;101919.06;4987826;28;20049;-72
2021/11/10 04:36:14;;;;;;;9.52;5.63;;;;;;;7.39;79.99;101917.44;4987739;28;20111;-72
2021/11/10 04:38:40;;;;;;;16.50;6.63;;;;;;;7.38;79.45;101907.84;4983357;28;20054;-72
2021/11/10 04:41:06;;;;;;;12.68;7.15;;;;;;;7.57;79.11;101926.06;4984150;28;20304;-72
2021/11/10 04:43:32;;;;;;;13.32;7.38;;;;;;;7.61;79.03;101923.16;4984630;28;20030;-72
2021/11/10 04:46:11;;;;;;;18.67;7.93;;;;;;;7.68;78.83;101923.66;4985201;28;20030;-66
2021/11/10 04:48:38;;;;;;;14.20;7.53;;;;;;;7.95;77.78;101937.00;4984763;28;20019;-66
2021/11/10 04:51:08;;;;;;;17.48;8.27;;;;;;;8.00;77.34;101937.56;4984302;28;20511;-72
2021/11/10 04:53:36;;;;;;;15.63;7.93;;;;;;;8.04;76.66;101923.25;4985604;28;20029;-70
2021/11/10 04:56:03;;;;;;;15.02;7.85;;;;;;;8.34;75.58;101932.94;4984609;28;20034;-68
2021/11/10 04:58:29;;;;;;;15.38;8.07;;;;;;;7.91;77.58;101940.75;4983718;28;20026;-67
2021/11/10 05:00:55;;;;;;;19.15;8.82;;;;;;;7.52;79.66;101938.69;4988323;28;20200;-71
2021/11/10 05:03:20;;;;;;;15.30;8.55;;;;;;;7.26;81.04;101935.72;4984371;28;20026;-68
2021/11/10 05:05:46;;;;;;;20.40;8.82;;;;;;;7.11;82.75;101946.28;4998559;28;20030;-71
2021/11/10 05:08:11;;;;;;;21.85;8.77;;;;;;;7.15;82.45;101929.34;4992827;28;20348;-72
2021/11/10 05:10:37;;;;;;;16.45;9.10;;;;;;;7.21;82.48;101926.38;4983585;28;20035;-72
2021/11/10 05:13:02;;;;;;;15.95;8.00;;;;;;;7.34;82.25;101943.22;4988774;28;20026;-71
2021/11/10 05:15:29;;;;;;;14.90;7.38;;;;;;;7.44;82.78;101944.38;4984139;28;20030;-67
2021/11/10 05:17:54;;;;;;;11.27;6.70;;;;;;;7.35;81.87;101945.78;4987827;28;20026;-68
2021/11/10 05:20:19;;;;;;;13.88;7.07;;;;;;;7.33;82.05;101938.88;5001766;28;20034;-68
2021/11/10 05:22:45;;;;;;;13.90;7.78;;;;;;;7.46;81.83;101941.66;4998974;28;20039;-68
2021/11/10 05:25:11;;;;;;;14.68;7.88;;;;;;;7.56;81.11;101951.59;4983591;28;20037;-72
2021/11/10 05:27:37;;;;;;;13.98;6.85;;;;;;;7.55;81.53;101951.69;4985055;28;20070;-72
2021/11/10 05:30:04;;;;;;;19.92;7.90;;;;;;;7.49;81.91;101958.16;4984115;28;20061;-73
2021/11/10 05:32:30;;;;;;;11.85;6.55;;;;;;;7.53;82.90;101954.41;4983176;28;20031;-67
2021/11/10 05:34:58;;;;;;;15.60;7.45;;;;;;;7.75;80.85;101955.78;4982382;28;20026;-73
2021/11/10 05:37:27;;;;;;;14.13;6.70;;;;;;;7.64;81.44;101956.41;4983966;28;20291;-68
2021/11/10 05:39:53;;;;;;;20.42;6.78;;;;;;;7.65;81.42;101961.59;4987390;28;20042;-72
2021/11/10 05:42:20;;;;;;;10.00;6.22;;;;;;;7.64;81.55;101961.69;4986409;28;20053;-72
2021/11/10 05:44:45;;;;;;;17.48;6.03;;;;;;;7.45;82.18;101963.69;4984375;28;20061;-72
2021/11/10 05:47:11;;;;;;;12.43;6.75;;;;;;;7.20;83.42;101974.75;4982853;28;20224;-72
2021/11/10 05:49:37;;;;;;;12.23;6.85;;;;;;;7.21;84.80;101981.72;4990186;28;20031;-72
2021/11/10 05:52:03;;;;;;;15.80;7.22;;;;;;;7.22;84.92;101986.03;4990063;28;20852;-68
2021/11/10 05:54:28;;;;;;;13.32;7.00;;;;;;;7.16;85.31;101983.75;4990595;28;20207;-68
2021/11/10 05:56:54;;;;;;;17.67;8.85;;;;;;;7.26;85.14;101974.41;4991442;28;20022;-72
2021/11/10 05:59:20;;;;;;;15.60;8.70;;;;;;;7.28;85.58;101986.59;4990361;28;20402;-72
2021/11/10 06:01:46;;;;;;;21.45;9.02;;;;;;;7.29;86.26;101993.56;4992330;28;20029;-72
2021/11/10 06:04:11;;;;;;;20.20;8.98;;;;;;;7.32;85.38;101995.16;4991736;28;20014;-68
2021/11/10 06:06:37;;;;;;;23.75;13.32;;;;;;;7.39;85.10;101988.63;4990901;28;20052;-73
2021/11/10 06:09:03;;;;;;;17.80;9.00;;;;;;;7.60;84.37;102000.56;4992769;28;20334;-72
2021/11/10 06:11:28;;;;;;;16.23;8.48;;;;;;;7.67;84.06;101993.16;4992279;28;20030;-67
2021/11/10 06:13:53;;;;;;;16.92;7.78;;;;;;;7.86;83.11;101995.56;4990816;28;20371;-72
2021/11/10 06:16:19;;;;;;;16.55;7.75;;;;;;;7.88;82.88;101994.53;4993588;28;20022;-68
2021/11/10 06:18:45;;;;;;;13.75;7.60;;;;;;;7.95;81.87;101995.03;4989412;28;20043;-72
2021/11/10 06:21:11;;;;;;;15.60;8.75;;;;;;;7.93;81.87;102003.03;4992279;28;20026;-67
2021/11/10 06:23:36;;;;;;;16.70;7.95;;;;;;;8.03;80.62;101998.06;4992829;28;20061;-68
2021/11/10 06:26:02;;;;;;;14.82;7.10;;;;;;;8.26;81.85;102001.97;4990143;28;20022;-68
2021/11/10 06:28:28;;;;;;;14.77;7.00;;;;;;;8.21;79.91;102001.41;4993017;28;20061;-72
2021/11/10 06:30:53;;;;;;;15.32;7.15;;;;;;;8.18;80.73;101996.31;4992866;28;20324;-72
2021/11/10 06:33:19;;;;;;;16.90;6.53;;;;;;;8.25;80.48;101997.63;4991417;28;20035;-72
2021/11/10 06:35:44;;;;;;;15.07;7.30;;;;;;;8.34;79.92;102004.22;4987555;28;20042;-67
2021/11/10 06:38:10;;;;;;;12.98;6.85;;;;;;;8.17;79.18;102007.81;4991105;28;20030;-67
2021/11/10 06:40:35;;;;;;;11.45;6.55;;;;;;;8.23;79.08;102003.00;4992877;28;20042;-68
2021/11/10 06:43:01;;;;;;;12.88;6.93;;;;;;;8.43;80.11;102011.56;4989287;28;21240;-67
2021/11/10 06:45:26;;;;;;;10.13;6.28;;;;;;;8.53;78.10;102016.19;4992489;28;20042;-68
2021/11/10 06:47:52;;;;;;;9.02;6.05;;;;;;;8.72;77.08;102007.16;4990910;28;20042;-68
2021/11/10 06:50:17;;;;;;;34.42;6.35;;;;;;;8.82;74.86;102017.06;4991820;28;20035;-72
2021/11/10 06:52:43;;;;;;;8.38;5.45;;;;;;;9.10;74.34;102020.59;4989341;28;20282;-71
2021/11/10 06:55:10;;;;;;;7.95;4.85;;;;;;;9.22;74.28;102017.19;4994684;28;20041;-72
2021/11/10 06:57:37;;;;;;;7.85;4.65;;;;;;;9.26;73.32;102016.88;4995896;28;20054;-68
2021/11/10 07:00:05;;;;;;;8.35;4.22;;;;;;;9.26;74.10;102010.75;4994394;28;20038;-72
2021/11/10 07:02:30;;;;;;;5.72;3.63;;;;;;;9.44;71.37;102021.97;4994136;28;20223;-67
2021/11/10 07:04:56;;;;;;;6.43;3.90;;;;;;;9.64;71.29;102025.97;4995897;28;20027;-65
2021/11/10 07:07:21;;;;;;;8.63;4.45;;;;;;;9.72;71.88;102034.25;4992999;28;20106;-65
2021/11/10 07:09:47;;;;;;;7.13;3.97;;;;;;;9.80;69.90;102024.84;4994918;28;20319;-70
2021/11/10 07:12:12;;;;;;;6.53;3.95;;;;;;;9.84;70.23;102023.69;4994793;28;20088;-65
2021/11/10 07:14:38;;;;;;;6.05;4.05;;;;;;;9.87;69.50;102018.19;4992559;28;20040;-65
2021/11/10 07:17:03;;;;;;;7.22;4.25;;;;;;;9.89;68.41;102031.31;4994324;28;20068;-69
2021/11/10 07:19:29;;;;;;;6.80;3.92;;;;;;;9.85;70.35;102033.31;4993546;28;20049;-67
2021/11/10 07:21:54;;;;;;;6.78;3.72;;;;;;;10.06;69.34;102023.09;4993668;28;20029;-69
2021/11/10 07:24:20;;;;;;;6.53;4.20;;;;;;;10.08;69.15;102030.94;4995073;28;20034;-65
2021/11/10 07:26:45;;;;;;;6.18;4.28;;;;;;;10.24;69.38;102031.63;4992326;28;20053;-72
2021/11/10 07:29:11;;;;;;;8.20;4.60;;;;;;;10.52;68.99;102031.47;4993218;28;20061;-70
2021/11/10 07:31:37;;;;;;;5.32;3.70;;;;;;;10.45;68.32;102026.69;4995284;28;20093;-70
2021/11/10 07:34:03;;;;;;;7.72;4.50;;;;;;;10.51;65.70;102032.44;4992898;28;20036;-70
2021/11/10 07:36:30;;;;;;;8.07;4.32;;;;;;;10.42;66.21;102027.75;4993688;28;20046;-69
2021/11/10 07:38:57;;;;;;;8.50;4.80;;;;;;;10.63;66.71;102037.81;4995829;28;20030;-70
2021/11/10 07:41:28;;;;;;;9.77;4.68;;;;;;;10.78;67.73;102034.09;4992601;28;20324;-70
2021/11/10 07:43:54;;;;;;;8.15;4.60;;;;;;;10.88;64.94;102043.09;4993426;28;20097;-70
2021/11/10 07:46:21;;;;;;;9.02;4.60;;;;;;;10.82;65.87;102033.78;4993092;28;20267;-70
2021/11/10 07:48:47;;;;;;;10.88;5.05;;;;;;;10.77;66.51;102043.00;4994062;28;20053;-65
2021/11/10 07:51:13;;;;;;;13.68;5.63;;;;;;;10.81;66.34;102041.84;4993939;28;20236;-65
2021/11/10 07:53:39;;;;;;;11.45;6.20;;;;;;;10.82;66.93;102044.38;4994482;28;20038;-72
2021/11/10 07:56:06;;;;;;;11.32;5.60;;;;;;;11.18;64.15;102048.03;4991969;28;20070;-70
2021/11/10 07:58:32;;;;;;;8.98;5.28;;;;;;;11.28;63.78;102041.09;4993217;28;20235;-65
2021/11/10 08:00:57;;;;;;;13.10;5.82;;;;;;;11.18;62.86;102045.38;4993482;28;20038;-67
2021/11/10 08:03:23;;;;;;;10.75;5.70;;;;;;;11.37;63.49;102037.78;4994721;28;20045;-72
2021/11/10 08:05:48;;;;;;;8.73;4.47;;;;;;;11.42;60.72;102038.31;4991689;28;20047;-67
2021/11/10 08:08:14;;;;;;;9.60;4.85;;;;;;;11.57;61.81;102028.41;4994545;28;20096;-67
2021/11/10 08:10:40;;;;;;;9.32;5.00;;;;;;;11.31;60.48;102035.59;5003201;28;20026;-67
2021/11/10 08:13:05;;;;;;;9.38;4.03;;;;;;;11.39;59.68;102048.28;5003652;28;20037;-65
2021/11/10 08:15:31;;;;;;;5.95;3.38;;;;;;;11.12;59.14;102057.28;5003270;28;20316;-72
2021/11/10 08:17:56;;;;;;;5.47;3.47;;;;;;;11.12;58.93;102051.97;5003719;28;20128;-68
2021/11/10 08:20:22;;;;;;;8.88;4.00;;;;;;;11.43;59.80;102042.66;5003367;28;20037;-65
2021/11/10 08:22:48;;;;;;;4.85;3.65;;;;;;;11.45;57.40;102046.06;5003043;28;20303;-66
2021/11/10 08:25:16;;;;;;;7.30;3.65;;;;;;;11.43;58.73;102052.41;5003330;28;20097;-69
2021/11/10 08:27:42;;;;;;;8.07;4.60;;;;;;;11.45;58.70;102048.72;5003342;28;20030;-65
2021/11/10 08:30:11;;;;;;;8.52;4.38;;;;;;;11.47;57.49;102043.31;5002843;28;20042;-71
2021/11/10 08:32:37;;;;;;;6.63;4.15;;;;;;;11.49;59.20;102036.09;5003237;28;20077;-67
2021/11/10 08:35:04;;;;;;;8.60;4.30;;;;;;;11.50;56.92;102043.94;5003521;28;20251;-71
2021/11/10 08:37:31;;;;;;;6.60;4.20;;;;;;;11.11;59.81;101999.06;5002845;28;20030;-67
2021/11/10 08:39:56;;;;;;;7.90;4.25;;;;;;;11.35;59.41;102037.06;5002898;28;20239;-67
2021/11/10 08:42:22;;;;;;;7.00;3.97;;;;;;;11.41;59.08;102043.72;5002991;28;20058;-67
2021/11/10 08:44:51;;;;;;;10.73;4.55;;;;;;;11.73;57.49;102028.97;5002966;28;20274;-72
2021/11/10 08:47:19;;;;;;;5.68;4.10;;;;;;;11.81;59.72;102050.50;5003226;28;20065;-72
2021/11/10 08:49:46;;;;;;;8.63;3.65;;;;;;;11.49;57.97;102049.34;5002754;28;20339;-65
2021/11/10 08:52:12;;;;;;;5.97;3.78;;;;;;;11.42;58.03;102048.91;5002910;28;20034;-66
2021/11/10 08:54:37;;;;;;;7.78;3.88;;;;;;;11.24;59.11;102050.25;5002174;28;20034;-65
2021/11/10 08:57:03;;;;;;;8.20;3.75;;;;;;;11.25;60.41;102048.44;5002973;28;20331;-65
2021/11/10 08:59:30;;;;;;;7.35;4.28;;;;;;;11.25;58.63;102046.63;5001588;28;20035;-71
2021/11/10 09:01:57;;;;;;;7.30;4.20;;;;;;;11.38;58.31;102034.19;5002249;28;20029;-72
2021/11/10 09:04:23;;;;;;;6.25;4.30;;;;;;;11.29;59.49;102042.81;5002996;28;20022;-72
2021/11/10 09:06:49;;;;;;;7.72;4.28;;;;;;;11.45;59.47;102042.56;5002443;28;20046;-72
2021/11/10 09:09:15;;;;;;;6.78;4.55;;;;;;;11.39;59.39;102032.38;5002062;28;20066;-68
2021/11/10 09:11:42;;;;;;;8.10;5.03;;;;;;;11.65;60.74;102028.69;5002946;28;20263;-72
2021/11/10 09:14:07;;;;;;;8.50;4.45;;;;;;;11.50;58.92;102025.34;5002321;28;20042;-68
2021/11/10 09:16:33;;;;;;;10.77;5.85;;;;;;;11.69;58.59;102018.69;5002349;28;20100;-67
2021/11/10 09:18:58;;;;;;;5.95;4.40;;;;;;;11.45;57.99;102026.66;5002586;28;20251;-72
2021/11/10 09:21:24;;;;;;;6.60;4.53;;;;;;;11.54;56.04;102025.13;5002408;28;20036;-71
2021/11/10 09:23:50;;;;;;;10.32;5.25;;;;;;;11.65;58.85;102001.31;5001796;28;20034;-72
2021/11/10 09:26:16;;;;;;;6.68;4.30;;;;;;;11.49;56.24;102015.69;5002466;28;20098;-67
2021/11/10 09:28:42;;;;;;;7.18;4.85;;;;;;;11.49;59.71;102010.41;5002247;28;20331;-67
2021/11/10 09:31:08;;;;;;;9.07;5.78;;;;;;;11.44;58.63;102006.34;5001792;28;20244;-67
2021/11/10 09:33:38;;;;;;;9.80;5.75;;;;;;;11.39;58.82;102012.00;5002284;28;20235;-72
2021/11/10 09:36:04;;;;;;;7.63;5.10;;;;;;;11.36;58.14;101995.47;5001243;28;20068;-68
2021/11/10 09:38:30;;;;;;;7.47;5.07;;;;;;;11.44;58.31;101978.06;5001709;28;20034;-65
2021/11/10 09:40:59;;;;;;;10.05;5.63;;;;;;;11.55;57.96;101987.88;5002260;28;20088;-66
2021/11/10 09:43:33;;;;;;;9.15;5.07;;;;;;;11.65;58.04;101975.59;5002204;28;20037;-67
2021/11/10 09:45:59;;;;;;;12.75;6.75;;;;;;;11.58;57.84;101976.19;5001562;28;20101;-67
2021/11/10 09:48:26;;;;;;;12.40;6.68;;;;;;;11.67;59.02;101980.81;5002007;28;20227;-67
2021/11/10 09:50:52;;;;;;;7.45;5.03;;;;;;;11.78;57.76;101971.09;5001982;28;20038;-72
2021/11/10 09:53:18;;;;;;;8.07;5.60;;;;;;;11.87;55.93;101969.56;5016721;28;20026;-71
2021/11/10 09:55:44;;;;;;;10.40;6.88;;;;;;;11.85;57.55;101971.50;5002069;28;20033;-67
2021/11/10 09:58:10;;;;;;;8.77;5.40;;;;;;;11.84;57.74;101964.50;5001485;28;20034;-68
2021/11/10 10:00:46;;;;;;;8.75;5.20;;;;;;;11.72;54.96;101952.09;5001615;28;20085;-72
2021/11/10 10:03:13;;;;;;;9.82;5.65;;;;;;;11.98;56.86;101948.34;5001925;28;20034;-67
2021/11/10 10:05:39;;;;;;;10.40;6.30;;;;;;;11.86;57.35;101941.31;5001862;28;20056;-72
2021/11/10 10:08:05;;;;;;;8.88;6.00;;;;;;;11.71;54.25;101940.66;5001430;28;20221;-67
2021/11/10 10:10:32;;;;;;;9.32;6.20;;;;;;;11.91;55.33;101939.16;5001867;28;20220;-72
2021/11/10 10:13:00;;;;;;;9.20;5.05;;;;;;;11.70;53.92;101938.97;5001802;28;20026;-72
2021/11/10 10:15:28;;;;;;;7.80;4.50;;;;;;;11.87;54.34;101931.56;5016593;28;20040;-73
2021/11/10 10:17:58;;;;;;;5.40;3.90;;;;;;;11.89;53.46;101917.19;5001853;28;20026;-67
2021/11/10 10:20:29;;;;;;;6.15;3.95;;;;;;;11.92;53.56;101914.31;5001468;28;20030;-72
2021/11/10 10:22:58;;;;;;;5.55;4.07;;;;;;;12.09;55.53;101920.97;5001418;28;20030;-72
2021/11/10 10:25:37;;;;;;;7.32;4.15;;;;;;;11.99;54.75;101915.53;5001728;28;20034;-72
2021/11/10 10:28:03;;;;;;;11.77;4.43;;;;;;;12.01;54.56;101902.97;5002540;28;20045;-72
2021/11/10 10:30:36;;;;;;;6.55;4.20;;;;;;;12.10;53.62;101906.72;5005613;28;20023;-71
2021/11/10 10:33:05;;;;;;;4.75;3.47;;;;;;;12.09;54.57;101900.56;5005537;28;20033;-72
2021/11/10 10:35:43;;;;;;;5.72;3.63;;;;;;;12.19;53.80;101891.88;5004859;28;20265;-72
2021/11/10 10:38:12;;;;;;;9.00;4.13;;;;;;;12.24;52.88;101892.38;5004663;28;20026;-67
2021/11/10 10:40:40;;;;;;;4.70;3.40;;;;;;;12.15;53.09;101885.97;5004668;28;20093;-72
2021/11/10 10:43:05;;;;;;;7.90;3.78;;;;;;;12.10;54.02;101877.53;5004666;28;20033;-71
2021/11/10 10:45:31;;;;;;;5.03;3.55;;;;;;;12.19;55.82;101874.13;5000698;28;20034;-67
2021/11/10 10:48:14;;;;;;;8.93;3.35;;;;;;;12.29;52.19;101875.09;4994148;28;20043;-72
2021/11/10 10:50:48;;;;;;;3.70;2.47;;;;;;;12.01;47.57;101859.66;4994373;28;20134;-67
2021/11/10 10:53:16;;;;;;;4.90;2.78;;;;;;;12.15;49.98;101864.72;4995546;28;20022;-67
2021/11/10 10:55:45;;;;;;;3.72;2.10;;;;;;;12.11;47.36;101864.13;4994884;28;20346;-72
2021/11/10 10:58:29;;;;;;;4.80;2.28;;;;;;;12.24;45.48;101865.81;4992056;28;20042;-72
2021/11/10 11:00:55;;;;;;;4.65;2.00;;;;;;;12.12;46.81;101860.50;4994817;28;20038;-67
2021/11/10 11:03:20;;;;;;;4.10;2.28;;;;;;;12.16;47.58;101855.78;4993821;28;20077;-72
2021/11/10 11:05:45;;;;;;;6.38;2.55;;;;;;;12.25;47.75;101851.56;4995317;28;20050;-72
2021/11/10 11:08:38;;;;;;;3.22;1.90;;;;;;;12.10;44.93;101849.16;4995013;28;20086;-67
2021/11/10 11:11:41;;;;;;;3.95;2.40;;;;;;;12.17;50.05;101849.50;4993465;28;20093;-72
2021/11/10 11:14:15;;;;;;;4.47;2.20;;;;;;;12.38;48.02;101836.34;4997950;28;20061;-72
2021/11/10 11:16:43;;;;;;;4.82;1.85;;;;;;;12.16;45.98;101829.22;5003153;28;20224;-67
2021/11/10 11:19:17;;;;;;;4.43;2.00;;;;;;;11.95;44.43;101838.88;5004101;28;20315;-72
2021/11/10 11:21:47;;;;;;;2.95;1.70;;;;;;;12.05;43.78;101826.59;5003745;28;20026;-72
2021/11/10 11:24:34;;;;;;;4.32;1.95;;;;;;;12.10;48.20;101832.38;5003798;28;20376;-67